FBSK/GBE METAR and TAF weather

Enter ICAO airport designator
Station Type Date Time Source
FBSK METAR 2024/04/18 07:00 UTC NOAA

FBSK 180700Z 07008KT CAVOK 18/13 Q1027 NOSIG


Station Type Date Time Source
FBSK Decoded METAR 2024/04/18 07:00 UTC NOAA

Seretse Khama International Airport, Botswana (FBSK) 24-13S 025-55E 1005M
Apr 18, 2024 - 03:00 AM EDT / 2024.04.18 0700 UTC
Wind: from the ENE (070 degrees) at 9 MPH (8 KT):0
Visibility: greater than 7 mile(s):0
Temperature: 64 F (18 C)
Dew Point: 55 F (13 C)
Relative Humidity: 72%
Pressure (altimeter): 30.33 in. Hg (1027 hPa)
ob: FBSK 180700Z 07008KT CAVOK 18/13 Q1027 NOSIG
cycle: 7

Station Type Date Time Source
FBSK TAF 2024/04/18 18:04 UTC NOAA